createdAt,value
2023-01-08T00:01:31.705Z,100425.44
2023-01-08T00:04:02.380Z,100426.31
2023-01-08T00:06:30.705Z,100425.88
2023-01-08T00:08:58.687Z,100415.88
2023-01-08T00:11:26.810Z,100417.06
2023-01-08T00:13:54.929Z,100411.09
2023-01-08T00:16:22.967Z,100403.78
2023-01-08T00:18:50.908Z,100402.44
2023-01-08T00:21:20.660Z,100398.13
2023-01-08T00:23:48.764Z,100408.28
2023-01-08T00:26:16.842Z,100405.16
2023-01-08T00:28:44.930Z,100396.31
2023-01-08T00:31:14.143Z,100394.69
2023-01-08T00:33:42.727Z,100402.63
2023-01-08T00:36:13.138Z,100385.97
2023-01-08T00:38:42.850Z,100395.94
2023-01-08T00:41:11.952Z,100385.34
2023-01-08T00:43:39.987Z,100383.16
2023-01-08T00:46:08.413Z,100387.03
2023-01-08T00:48:38.643Z,100370.16
2023-01-08T00:51:08.680Z,100365.56
2023-01-08T00:53:37.948Z,100360.41
2023-01-08T00:56:09.846Z,100365.97
2023-01-08T00:58:38.999Z,100362.09
2023-01-08T01:01:12.257Z,100351.59
2023-01-08T01:03:40.607Z,100360.94
2023-01-08T01:06:09.171Z,100363.53
2023-01-08T01:08:39.589Z,100362.19
2023-01-08T01:11:10.359Z,100350.47
2023-01-08T01:13:38.706Z,100338.94
2023-01-08T01:16:07.099Z,100350.25
2023-01-08T01:18:36.887Z,100341.22
2023-01-08T01:21:11.396Z,100350.75
2023-01-08T01:23:39.492Z,100356.75
2023-01-08T01:26:17.586Z,100348.03
2023-01-08T01:28:48.490Z,100346.72
2023-01-08T01:31:16.944Z,100347.53
2023-01-08T01:33:45.348Z,100350.56
2023-01-08T01:36:14.531Z,100333.38
2023-01-08T01:38:44.478Z,100335.66
2023-01-08T01:41:20.762Z,100330.53
2023-01-08T01:43:48.770Z,100335.59
2023-01-08T01:46:23.477Z,100336.19
2023-01-08T01:48:54.608Z,100349.53
2023-01-08T01:51:23.424Z,100337.84
2023-01-08T01:53:51.404Z,100339.69
2023-01-08T01:56:21.622Z,100336.44
2023-01-08T01:58:49.588Z,100325.47
2023-01-08T02:01:17.892Z,100309.13
2023-01-08T02:03:45.976Z,100315.94
2023-01-08T02:06:24.125Z,100317.91
2023-01-08T02:09:00.938Z,100330.50
2023-01-08T02:11:42.602Z,100326.63
2023-01-08T02:14:17.571Z,100306.78
2023-01-08T02:16:53.298Z,100307.44
2023-01-08T02:19:36.372Z,100305.97
2023-01-08T02:22:11.956Z,100305.31
2023-01-08T02:24:53.830Z,100294.88
2023-01-08T02:27:26.211Z,100280.34
2023-01-08T02:29:55.788Z,100282.72
2023-01-08T02:32:26.717Z,100272.34
2023-01-08T02:34:55.358Z,100259.31
2023-01-08T02:37:23.255Z,100257.50
2023-01-08T02:40:04.985Z,100276.28
2023-01-08T02:42:42.224Z,100272.22
2023-01-08T02:45:22.527Z,100271.72
2023-01-08T02:47:55.501Z,100262.78
2023-01-08T02:50:29.764Z,100259.94
2023-01-08T02:53:03.179Z,100258.34
2023-01-08T02:55:34.485Z,100256.44
2023-01-08T02:58:05.778Z,100245.69
2023-01-08T03:00:34.719Z,100248.59
2023-01-08T03:03:08.375Z,100242.50
2023-01-08T03:05:36.893Z,100243.25
2023-01-08T03:08:05.266Z,100230.50
2023-01-08T03:10:34.025Z,100237.44
2023-01-08T03:13:09.027Z,100215.81
2023-01-08T03:15:43.839Z,100229.91
2023-01-08T03:18:16.996Z,100234.00
2023-01-08T03:20:47.140Z,100228.44
2023-01-08T03:23:17.201Z,100235.56
2023-01-08T03:25:48.169Z,100236.88
2023-01-08T03:28:23.502Z,100230.09
2023-01-08T03:30:53.807Z,100231.88
2023-01-08T03:33:25.162Z,100224.16
2023-01-08T03:35:56.200Z,100229.97
2023-01-08T03:38:29.249Z,100213.34
2023-01-08T03:41:01.889Z,100212.50
2023-01-08T03:43:31.299Z,100218.97
2023-01-08T03:46:02.590Z,100208.75
2023-01-08T03:48:34.317Z,100204.63
2023-01-08T03:51:02.427Z,100207.31
2023-01-08T03:53:30.368Z,100204.91
2023-01-08T03:55:59.126Z,100215.72
2023-01-08T03:58:27.012Z,100221.88
2023-01-08T04:00:56.319Z,100219.25
2023-01-08T04:03:25.100Z,100225.03
2023-01-08T04:05:52.982Z,100217.03
2023-01-08T04:08:20.851Z,100218.53
2023-01-08T04:10:48.767Z,100221.22
2023-01-08T04:13:16.662Z,100211.50
2023-01-08T04:15:48.701Z,100215.78
2023-01-08T04:18:18.435Z,100218.66
2023-01-08T04:20:47.368Z,100215.13
2023-01-08T04:23:15.734Z,100209.13
2023-01-08T04:25:43.601Z,100205.53
2023-01-08T04:28:11.474Z,100216.06
2023-01-08T04:30:39.512Z,100212.75
2023-01-08T04:33:07.476Z,100219.25
2023-01-08T04:35:36.854Z,100207.44
2023-01-08T04:38:05.141Z,100202.81
2023-01-08T04:40:33.966Z,100190.69
2023-01-08T04:43:02.030Z,100190.19
2023-01-08T04:45:31.039Z,100177.59
2023-01-08T04:47:59.939Z,100170.59
2023-01-08T04:50:28.697Z,100182.34
2023-01-08T04:52:59.920Z,100176.38
2023-01-08T04:55:27.783Z,100163.25
2023-01-08T04:57:55.636Z,100160.28
2023-01-08T05:00:23.578Z,100170.44
2023-01-08T05:02:51.655Z,100172.94
2023-01-08T05:05:19.627Z,100177.53
2023-01-08T05:07:47.466Z,100172.88
2023-01-08T05:10:16.911Z,100171.66
2023-01-08T05:12:44.833Z,100162.28
2023-01-08T05:15:13.034Z,100154.97
2023-01-08T05:17:40.916Z,100169.28
2023-01-08T05:20:10.063Z,100156.13
2023-01-08T05:22:37.947Z,100157.66
2023-01-08T05:25:06.808Z,100163.44
2023-01-08T05:27:36.048Z,100153.81
2023-01-08T05:30:03.968Z,100156.00
2023-01-08T05:32:31.885Z,100149.81
2023-01-08T05:34:59.745Z,100155.31
2023-01-08T05:37:27.611Z,100159.69
2023-01-08T05:39:55.515Z,100146.81
2023-01-08T05:42:23.657Z,100150.16
2023-01-08T05:44:52.905Z,100152.28
2023-01-08T05:47:20.767Z,100150.19
2023-01-08T05:49:48.669Z,100144.31
2023-01-08T05:52:16.603Z,100142.94
2023-01-08T05:54:44.440Z,100137.56
2023-01-08T05:57:12.416Z,100132.13
2023-01-08T05:59:40.301Z,100128.22
2023-01-08T06:02:10.278Z,100139.00
2023-01-08T06:04:38.240Z,100136.00
2023-01-08T06:07:06.118Z,100133.50
2023-01-08T06:09:33.990Z,100134.25
2023-01-08T06:12:01.879Z,100123.66
2023-01-08T06:14:29.775Z,100126.06
2023-01-08T06:16:57.743Z,100125.34
2023-01-08T06:19:27.429Z,100122.72
2023-01-08T06:21:55.343Z,100120.53
2023-01-08T06:24:23.303Z,100114.78
2023-01-08T06:26:51.228Z,100118.13
2023-01-08T06:29:19.244Z,100110.28
2023-01-08T06:31:47.350Z,100112.38
2023-01-08T06:34:15.412Z,100110.16
2023-01-08T06:36:44.712Z,100104.84
2023-01-08T06:39:13.188Z,100112.81
2023-01-08T06:41:41.072Z,100112.59
2023-01-08T06:44:09.176Z,100105.78
2023-01-08T06:46:40.361Z,100106.00
2023-01-08T06:49:08.552Z,100106.53
2023-01-08T06:51:37.246Z,100107.66
2023-01-08T06:54:06.725Z,100104.63
2023-01-08T06:56:48.734Z,100112.47
2023-01-08T06:59:20.716Z,100113.00
2023-01-08T07:01:49.021Z,100113.44
2023-01-08T07:04:17.253Z,100106.41
2023-01-08T07:06:45.222Z,100112.69
2023-01-08T07:09:15.456Z,100111.66
2023-01-08T07:11:43.881Z,100116.38
2023-01-08T07:14:11.838Z,100118.03
2023-01-08T07:16:39.941Z,100109.97
2023-01-08T07:19:08.021Z,100114.88
2023-01-08T07:21:36.078Z,100114.88
2023-01-08T07:24:04.550Z,100117.31
2023-01-08T07:26:34.073Z,100112.59
2023-01-08T07:29:02.202Z,100116.44
2023-01-08T07:31:30.230Z,100110.59
2023-01-08T07:33:58.276Z,100123.03
2023-01-08T07:36:26.262Z,100116.31
2023-01-08T07:38:54.189Z,100118.63
2023-01-08T07:41:22.210Z,100119.56
2023-01-08T07:43:51.643Z,100122.41
2023-01-08T07:46:22.057Z,100124.59
2023-01-08T07:48:50.209Z,100124.91
2023-01-08T07:51:18.204Z,100132.34
2023-01-08T07:53:46.252Z,100125.13
2023-01-08T07:56:14.191Z,100123.97
2023-01-08T07:58:44.670Z,100118.88
2023-01-08T08:01:16.309Z,100120.44
2023-01-08T08:03:47.028Z,100119.25
2023-01-08T08:06:16.040Z,100109.34
2023-01-08T08:08:46.071Z,100113.84
2023-01-08T08:11:19.773Z,100109.34
2023-01-08T08:13:53.039Z,100102.00
2023-01-08T08:16:28.929Z,100099.81
2023-01-08T08:19:00.293Z,100100.22
2023-01-08T08:21:29.303Z,100100.75
2023-01-08T08:23:57.472Z,100107.16
2023-01-08T08:26:25.719Z,100112.59
2023-01-08T08:28:53.868Z,100111.19
2023-01-08T08:31:23.331Z,100112.25
2023-01-08T08:33:58.657Z,100097.09
2023-01-08T08:36:29.514Z,100100.94
2023-01-08T08:38:58.301Z,100089.41
2023-01-08T08:41:26.375Z,100085.16
2023-01-08T08:43:54.480Z,100083.56
2023-01-08T08:46:26.051Z,100080.13
2023-01-08T08:48:56.095Z,100086.56
2023-01-08T08:51:24.055Z,100083.69
2023-01-08T08:53:51.952Z,100086.88
2023-01-08T08:56:22.659Z,100083.59
2023-01-08T08:58:51.801Z,100076.34
2023-01-08T09:01:19.866Z,100081.75
2023-01-08T09:03:49.803Z,100084.69
2023-01-08T09:06:17.984Z,100080.69
2023-01-08T09:08:45.867Z,100066.16
2023-01-08T09:11:14.590Z,100067.00
2023-01-08T09:13:42.693Z,100058.94
2023-01-08T09:16:10.701Z,100057.84
2023-01-08T09:18:38.680Z,100046.91
2023-01-08T09:21:09.403Z,100034.84
2023-01-08T09:23:38.636Z,100025.53
2023-01-08T09:26:07.360Z,100038.13
2023-01-08T09:28:35.321Z,100060.22
2023-01-08T09:31:03.696Z,100062.72
2023-01-08T09:33:33.396Z,100071.91
2023-01-08T09:36:01.362Z,100072.44
2023-01-08T09:38:30.960Z,100081.34
2023-01-08T09:41:02.662Z,100079.78
2023-01-08T09:43:32.957Z,100084.34
2023-01-08T09:46:04.659Z,100061.63
2023-01-08T09:48:37.240Z,100082.25
2023-01-08T09:51:05.679Z,100082.75
2023-01-08T09:53:38.219Z,100094.81
2023-01-08T09:56:14.328Z,100087.88
2023-01-08T09:58:45.834Z,100092.00
2023-01-08T10:01:16.053Z,100086.75
2023-01-08T10:03:47.551Z,100087.69
2023-01-08T10:06:17.172Z,100086.91
2023-01-08T10:08:47.232Z,100075.06
2023-01-08T10:11:16.437Z,100068.81
2023-01-08T10:13:53.355Z,100061.69
2023-01-08T10:16:27.863Z,100049.13
2023-01-08T10:18:59.220Z,100039.19
2023-01-08T10:21:31.642Z,100052.44
2023-01-08T10:24:00.926Z,100037.78
2023-01-08T10:26:30.994Z,100038.13
2023-01-08T10:29:18.816Z,100049.03
2023-01-08T10:31:49.694Z,100042.31
2023-01-08T10:34:28.236Z,100044.91
2023-01-08T10:36:57.206Z,100043.63
2023-01-08T10:39:28.314Z,100040.47
2023-01-08T10:41:58.692Z,100040.81
2023-01-08T10:44:27.207Z,100037.97
2023-01-08T10:46:59.181Z,100043.88
2023-01-08T10:49:34.927Z,100042.09
2023-01-08T10:52:05.048Z,100043.66
2023-01-08T10:54:37.319Z,100040.94
2023-01-08T10:57:21.378Z,100038.81
2023-01-08T10:59:49.352Z,100041.75
2023-01-08T11:02:31.446Z,100032.97
2023-01-08T11:05:00.427Z,100031.91
2023-01-08T11:07:29.927Z,100028.03
2023-01-08T11:10:03.659Z,100019.59
2023-01-08T11:12:38.839Z,100014.59
2023-01-08T11:15:34.617Z,100005.78
2023-01-08T11:18:18.975Z,100006.19
2023-01-08T11:20:47.844Z,99990.19
2023-01-08T11:23:21.923Z,99993.38
2023-01-08T11:26:01.007Z,99995.06
2023-01-08T11:28:40.434Z,99992.69
2023-01-08T11:31:15.244Z,99994.84
2023-01-08T11:33:45.667Z,99989.69
2023-01-08T11:36:24.802Z,99976.72
2023-01-08T11:38:53.995Z,99977.44
2023-01-08T11:41:49.175Z,99973.13
2023-01-08T11:44:22.790Z,99981.72
2023-01-08T11:47:01.503Z,99979.22
2023-01-08T11:49:54.699Z,99977.78
2023-01-08T11:52:35.223Z,99965.84
2023-01-08T11:55:19.281Z,99971.22
2023-01-08T11:58:02.662Z,99975.63
2023-01-08T12:00:44.380Z,99970.28
2023-01-08T12:03:21.539Z,99955.75
2023-01-08T12:05:54.049Z,99952.41
2023-01-08T12:08:28.958Z,99944.91
2023-01-08T12:11:10.209Z,99937.41
2023-01-08T12:13:54.851Z,99940.00
2023-01-08T12:16:38.845Z,99936.66
2023-01-08T12:19:21.312Z,99932.28
2023-01-08T12:22:06.283Z,99941.09
2023-01-08T12:24:53.842Z,99937.66
2023-01-08T12:27:55.325Z,99937.31
2023-01-08T12:30:33.295Z,99924.44
2023-01-08T12:33:06.598Z,99919.06
2023-01-08T12:35:40.338Z,99912.28
2023-01-08T12:38:14.291Z,99916.69
2023-01-08T12:40:44.692Z,99915.59
2023-01-08T12:43:17.529Z,99925.50
2023-01-08T12:45:49.914Z,99943.97
2023-01-08T12:48:21.939Z,99923.47
2023-01-08T12:51:02.351Z,99922.88
2023-01-08T12:53:45.035Z,99931.47
2023-01-08T12:56:22.074Z,99929.16
2023-01-08T12:59:00.951Z,99916.69
2023-01-08T13:01:41.672Z,99924.19
2023-01-08T13:04:12.131Z,99911.44
2023-01-08T13:06:50.512Z,99907.38
2023-01-08T13:09:24.532Z,99902.38
2023-01-08T13:11:53.981Z,99907.97
2023-01-08T13:14:22.702Z,99904.72
2023-01-08T13:17:04.669Z,99910.72
2023-01-08T13:19:41.360Z,99918.59
2023-01-08T13:22:24.222Z,99915.09
2023-01-08T13:24:52.354Z,99909.94
2023-01-08T13:27:30.337Z,99897.56
2023-01-08T13:29:58.625Z,99885.19
2023-01-08T13:32:43.843Z,99888.06
2023-01-08T13:35:25.083Z,99887.41
2023-01-08T13:38:07.548Z,99894.28
2023-01-08T13:40:37.919Z,99885.09
2023-01-08T13:43:13.068Z,99880.53
2023-01-08T13:45:44.174Z,99886.75
2023-01-08T13:48:47.699Z,99885.56
2023-01-08T13:51:42.709Z,99891.41
2023-01-08T13:54:21.672Z,99883.78
2023-01-08T13:57:04.861Z,99883.41
2023-01-08T14:02:50.231Z,99879.63
2023-01-08T14:05:27.109Z,99882.69
2023-01-08T14:07:55.662Z,99887.03
2023-01-08T14:10:24.626Z,99883.19
2023-01-08T14:12:53.263Z,99872.84
2023-01-08T14:15:27.099Z,99873.19
2023-01-08T14:17:56.581Z,99880.09
2023-01-08T14:20:37.046Z,99867.38
2023-01-08T14:23:12.500Z,99879.63
2023-01-08T14:25:42.172Z,99875.19
2023-01-08T14:28:17.964Z,99874.50
2023-01-08T14:30:50.302Z,99874.88
2023-01-08T14:33:21.670Z,99875.41
2023-01-08T14:35:55.733Z,99879.31
2023-01-08T14:38:50.208Z,99882.41
2023-01-08T14:41:22.025Z,99878.88
2023-01-08T14:43:54.220Z,99871.06
2023-01-08T14:46:27.202Z,99868.38
2023-01-08T14:48:56.566Z,99872.97
2023-01-08T14:51:28.815Z,99869.09
2023-01-08T14:54:00.006Z,99871.94
2023-01-08T14:56:31.664Z,99868.97
2023-01-08T14:59:00.916Z,99870.97
2023-01-08T15:01:33.437Z,99870.63
2023-01-08T15:04:08.109Z,99862.19
2023-01-08T15:06:37.526Z,99860.88
2023-01-08T15:09:22.048Z,99861.38
2023-01-08T15:11:54.220Z,99848.78
2023-01-08T15:14:25.463Z,99851.81
2023-01-08T15:16:59.435Z,99846.84
2023-01-08T15:19:29.476Z,99848.78
2023-01-08T15:22:00.570Z,99844.47
2023-01-08T15:24:30.809Z,99853.78
2023-01-08T15:27:00.621Z,99851.66
2023-01-08T15:29:33.056Z,99853.78
2023-01-08T15:32:12.110Z,99856.66
2023-01-08T15:34:47.280Z,99853.34
2023-01-08T15:37:16.992Z,99863.09
2023-01-08T15:39:44.951Z,99856.19
2023-01-08T15:42:38.930Z,99849.38
2023-01-08T15:45:13.711Z,99855.22
2023-01-08T15:47:41.721Z,99853.69
2023-01-08T15:50:11.266Z,99851.91
2023-01-08T15:52:45.609Z,99852.84
2023-01-08T15:55:17.917Z,99864.53
2023-01-08T15:57:46.097Z,99868.41
2023-01-08T16:00:16.081Z,99867.25
2023-01-08T16:02:47.057Z,99863.22
2023-01-08T16:05:16.297Z,99866.78
2023-01-08T16:07:46.892Z,99866.03
2023-01-08T16:10:15.636Z,99860.09
2023-01-08T16:12:44.243Z,99868.75
2023-01-08T16:15:13.817Z,99861.41
2023-01-08T16:17:44.489Z,99862.69
2023-01-08T16:20:13.732Z,99866.00
2023-01-08T16:22:42.278Z,99871.78
2023-01-08T16:25:12.228Z,99862.91
2023-01-08T16:27:41.056Z,99860.53
2023-01-08T16:30:12.611Z,99858.75
2023-01-08T16:32:40.579Z,99853.63
2023-01-08T16:35:09.563Z,99855.38
2023-01-08T16:37:38.061Z,99853.50
2023-01-08T16:40:07.252Z,99852.06
2023-01-08T16:42:38.833Z,99838.44
2023-01-08T16:45:08.430Z,99835.06
2023-01-08T16:47:41.542Z,99841.00
2023-01-08T16:50:14.242Z,99830.44
2023-01-08T16:52:42.145Z,99839.72
2023-01-08T16:55:11.804Z,99831.78
2023-01-08T16:57:41.149Z,99830.72
2023-01-08T17:00:12.546Z,99832.81
2023-01-08T17:02:40.482Z,99823.03
2023-01-08T17:05:08.972Z,99826.03
2023-01-08T17:07:36.888Z,99820.69
2023-01-08T17:10:05.661Z,99820.34
2023-01-08T17:12:33.623Z,99818.81
2023-01-08T17:15:02.952Z,99815.47
2023-01-08T17:17:30.894Z,99810.47
2023-01-08T17:19:58.852Z,99805.59
2023-01-08T17:22:26.796Z,99806.66
2023-01-08T17:24:54.714Z,99802.72
2023-01-08T17:27:22.611Z,99804.84
2023-01-08T17:29:50.589Z,99798.19
2023-01-08T17:32:19.910Z,99798.09
2023-01-08T17:34:47.863Z,99793.09
2023-01-08T17:37:16.373Z,99790.94
2023-01-08T17:39:45.578Z,99798.09
2023-01-08T17:42:27.387Z,99790.72
2023-01-08T17:45:01.149Z,99786.06
2023-01-08T17:47:35.591Z,99786.66
2023-01-08T17:50:05.655Z,99798.31
2023-01-08T17:52:33.635Z,99792.22
2023-01-08T17:55:01.581Z,99783.91
2023-01-08T17:57:31.454Z,99772.97
2023-01-08T17:59:59.705Z,99773.22
2023-01-08T18:02:27.884Z,99776.28
2023-01-08T18:04:57.257Z,99776.63
2023-01-08T18:07:25.250Z,99786.38
2023-01-08T18:09:54.316Z,99778.78
2023-01-08T18:12:22.398Z,99781.38
2023-01-08T18:14:50.371Z,99780.09
2023-01-08T18:17:18.290Z,99773.41
2023-01-08T18:19:48.605Z,99776.88
2023-01-08T18:22:18.069Z,99772.63
2023-01-08T18:24:45.994Z,99777.38
2023-01-08T18:27:13.937Z,99782.72
2023-01-08T18:29:41.998Z,99768.78
2023-01-08T18:32:09.936Z,99778.56
2023-01-08T18:34:38.947Z,99777.13
2023-01-08T18:37:07.014Z,99776.09
2023-01-08T18:39:36.393Z,99775.09
2023-01-08T18:42:21.863Z,99775.22
2023-01-08T18:44:52.525Z,99778.44
2023-01-08T18:47:20.637Z,99760.13
2023-01-08T18:49:48.663Z,99755.47
2023-01-08T18:52:16.864Z,99760.59
2023-01-08T18:54:46.255Z,99752.72
2023-01-08T18:57:14.200Z,99746.78
2023-01-08T18:59:42.401Z,99737.97
2023-01-08T19:02:18.869Z,99743.91
2023-01-08T19:04:47.279Z,99742.00
2023-01-08T19:07:15.724Z,99738.34
2023-01-08T20:15:41.949Z,99709.97
2023-01-08T20:18:09.921Z,99710.88
2023-01-08T20:20:37.875Z,99700.50
2023-01-08T20:23:06.039Z,99701.94
2023-01-08T20:25:35.414Z,99696.03
2023-01-08T20:28:03.526Z,99691.59
2023-01-08T20:30:31.619Z,99695.88
2023-01-08T20:33:01.165Z,99691.69
2023-01-08T20:35:29.130Z,99689.22
2023-01-08T20:37:57.137Z,99685.63
2023-01-08T20:40:25.299Z,99690.53
2023-01-08T20:42:55.223Z,99681.09
2023-01-08T20:45:23.158Z,99678.41
2023-01-08T20:47:51.147Z,99678.75
2023-01-08T20:50:20.682Z,99674.56
2023-01-08T20:52:48.837Z,99671.31
2023-01-08T20:55:18.575Z,99668.84
2023-01-08T20:57:46.763Z,99676.03
2023-01-08T21:00:15.450Z,99679.47
2023-01-08T21:02:43.633Z,99685.97
2023-01-08T21:05:11.657Z,99679.88
2023-01-08T21:07:46.955Z,99676.75
2023-01-08T21:10:14.975Z,99668.72
2023-01-08T21:12:43.052Z,99664.56
2023-01-08T21:15:12.411Z,99666.91
2023-01-08T21:17:40.576Z,99659.13
2023-01-08T21:20:11.877Z,99663.06
2023-01-08T21:22:41.463Z,99661.59
2023-01-08T21:25:10.355Z,99658.38
2023-01-08T21:27:38.503Z,99650.94
2023-01-08T21:30:07.711Z,99653.03
2023-01-08T21:32:37.300Z,99636.53
2023-01-08T21:35:10.739Z,99636.00
2023-01-08T21:37:38.724Z,99633.94
2023-01-08T21:40:12.235Z,99630.31
2023-01-08T21:42:57.609Z,99629.13
2023-01-08T21:45:25.620Z,99639.56
2023-01-08T21:47:56.372Z,99636.47
2023-01-08T21:50:25.812Z,99637.88
2023-01-08T21:53:11.037Z,99636.50
2023-01-08T21:55:42.924Z,99627.69
2023-01-08T21:58:11.082Z,99630.03
2023-01-08T22:00:39.493Z,99619.78
2023-01-08T22:03:07.551Z,99607.09
2023-01-08T22:05:35.585Z,99603.66
2023-01-08T22:08:05.164Z,99604.63
2023-01-08T22:10:33.175Z,99602.97
2023-01-08T22:13:02.546Z,99597.66
2023-01-08T22:15:30.598Z,99601.03
2023-01-08T22:17:58.523Z,99586.44
2023-01-08T22:20:26.505Z,99581.66
2023-01-08T22:22:54.462Z,99576.66
2023-01-08T22:25:22.423Z,99578.44
2023-01-08T22:27:54.095Z,99577.75
2023-01-08T22:30:23.902Z,99578.09
2023-01-08T22:32:51.867Z,99569.69
2023-01-08T22:35:19.829Z,99576.94
2023-01-08T22:37:47.792Z,99572.44
2023-01-08T22:40:15.798Z,99566.59
2023-01-08T22:42:43.848Z,99557.22
2023-01-08T22:45:12.355Z,99570.03
2023-01-08T22:47:41.894Z,99567.56
2023-01-08T22:50:11.161Z,99569.59
2023-01-08T22:52:39.287Z,99573.94
2023-01-08T22:55:08.147Z,99563.00
2023-01-08T22:57:36.193Z,99559.53
2023-01-08T23:00:05.885Z,99550.81
2023-01-08T23:02:34.032Z,99549.09
2023-01-08T23:05:03.520Z,99546.81
2023-01-08T23:07:31.462Z,99540.16
2023-01-08T23:09:59.496Z,99539.09
2023-01-08T23:12:27.420Z,99543.91
2023-01-08T23:14:55.384Z,99541.84
2023-01-08T23:17:23.641Z,99528.09
2023-01-08T23:19:51.640Z,99527.03
2023-01-08T23:22:21.148Z,99526.44
2023-01-08T23:24:49.132Z,99528.19
2023-01-08T23:27:17.079Z,99525.66
2023-01-08T23:29:45.017Z,99519.06
2023-01-08T23:32:13.000Z,99521.88
2023-01-08T23:34:40.966Z,99525.13
2023-01-08T23:37:09.181Z,99520.44
2023-01-08T23:39:38.612Z,99505.06
2023-01-08T23:42:06.683Z,99510.84
2023-01-08T23:44:34.582Z,99504.59
2023-01-08T23:47:02.536Z,99507.41
2023-01-08T23:49:30.455Z,99502.09
2023-01-08T23:51:58.426Z,99504.19
2023-01-08T23:54:26.343Z,99499.47
2023-01-08T23:56:56.974Z,99495.25
2023-01-08T23:59:24.903Z,99498.47
